TimeAKST,TemperatureF,Dew PointF,Humidity,Sea Level PressureIn,VisibilityMPH,Wind Direction,Wind SpeedMPH,Gust SpeedMPH,PrecipitationIn,Events,Conditions,WindDirDegrees,DateUTC
12:16 AM,-16.6,-23.8,70,29.96,10.0,Calm,Calm,-,N/A,,Clear,0,2012-11-18 09:16:00
12:36 AM,-14.8,-22.0,70,29.96,10.0,Calm,Calm,-,N/A,,Clear,0,2012-11-18 09:36:00
12:56 AM,-14.8,-20.2,77,29.96,10.0,Calm,Calm,-,N/A,,Clear,0,2012-11-18 09:56:00
1:16 AM,-14.8,-16.6,92,29.96,10.0,SW,3.5,-,N/A,,Clear,220,2012-11-18 10:16:00
1:36 AM,-14.8,-20.2,77,29.96,10.0,SW,4.6,-,N/A,,Clear,220,2012-11-18 10:36:00
1:56 AM,-14.8,-22.0,70,29.96,10.0,SSW,3.5,-,N/A,,Clear,210,2012-11-18 10:56:00
2:16 AM,-14.8,-20.2,77,29.96,10.0,SW,4.6,-,N/A,,Clear,220,2012-11-18 11:16:00
2:36 AM,-16.6,-22.0,76,29.96,10.0,Calm,Calm,-,N/A,,Clear,0,2012-11-18 11:36:00
3:16 AM,-16.6,-22.0,76,29.96,10.0,Calm,Calm,-,N/A,,Clear,0,2012-11-18 12:16:00
3:36 AM,-16.6,-23.8,70,29.96,10.0,WSW,3.5,-,N/A,,Clear,250,2012-11-18 12:36:00
3:56 AM,-16.6,-22.0,76,29.96,10.0,SW,3.5,-,N/A,,Clear,230,2012-11-18 12:56:00
4:16 AM,-16.6,-23.8,70,29.97,10.0,Calm,Calm,-,N/A,,Clear,0,2012-11-18 13:16:00
4:36 AM,-16.6,-23.8,70,29.97,10.0,SW,3.5,-,N/A,,Clear,230,2012-11-18 13:36:00
4:56 AM,-16.6,-23.8,70,29.97,10.0,Calm,Calm,-,N/A,,Clear,0,2012-11-18 13:56:00
5:16 AM,-16.6,-23.8,70,29.97,10.0,Calm,Calm,-,N/A,,Clear,0,2012-11-18 14:16:00
5:36 AM,-16.6,-20.2,84,29.98,10.0,South,4.6,-,N/A,,Clear,190,2012-11-18 14:36:00
5:56 AM,-18.4,-25.6,70,29.98,10.0,SW,3.5,-,N/A,,Clear,230,2012-11-18 14:56:00
6:16 AM,-18.4,-27.4,63,29.98,10.0,Calm,Calm,-,N/A,,Clear,0,2012-11-18 15:16:00
6:36 AM,-18.4,-23.8,76,29.98,10.0,Calm,Calm,-,N/A,,Clear,0,2012-11-18 15:36:00
6:56 AM,-18.4,-23.8,76,29.99,10.0,WSW,3.5,-,N/A,,Clear,250,2012-11-18 15:56:00
7:16 AM,-18.4,-23.8,76,29.99,10.0,Calm,Calm,-,N/A,,Clear,0,2012-11-18 16:16:00
7:36 AM,-16.6,-23.8,70,30.00,10.0,Calm,Calm,-,N/A,,Clear,0,2012-11-18 16:36:00
7:56 AM,-18.4,-23.8,76,30.00,10.0,Calm,Calm,-,N/A,,Clear,0,2012-11-18 16:56:00
8:16 AM,-18.4,-25.6,70,30.01,10.0,South,3.5,-,N/A,,Clear,190,2012-11-18 17:16:00
8:36 AM,-18.4,-23.8,76,30.01,10.0,Calm,Calm,-,N/A,,Clear,0,2012-11-18 17:36:00
8:56 AM,-18.4,-23.8,76,30.02,10.0,Calm,Calm,-,N/A,,Clear,0,2012-11-18 17:56:00
9:16 AM,-16.6,-20.2,84,30.02,10.0,Calm,Calm,-,N/A,,Clear,0,2012-11-18 18:16:00
9:36 AM,-16.6,-23.8,70,30.03,10.0,Calm,Calm,-,N/A,,Clear,0,2012-11-18 18:36:00
9:56 AM,-16.6,-22.0,76,30.03,10.0,Calm,Calm,-,N/A,,Clear,0,2012-11-18 18:56:00
10:16 AM,-16.6,-18.4,92,30.05,10.0,Calm,Calm,-,N/A,,Clear,0,2012-11-18 19:16:00
10:36 AM,-16.6,-23.8,70,30.05,10.0,Calm,Calm,-,N/A,,Clear,0,2012-11-18 19:36:00
10:56 AM,-16.6,-22.0,76,30.05,10.0,SSW,3.5,-,N/A,,Clear,210,2012-11-18 19:56:00
11:16 AM,-16.6,-22.0,76,30.06,10.0,Calm,Calm,-,N/A,,Clear,0,2012-11-18 20:16:00
11:36 AM,-14.8,-20.2,77,30.07,10.0,Calm,Calm,-,N/A,,Clear,0,2012-11-18 20:36:00
11:56 AM,-13.0,-14.8,92,30.07,10.0,Calm,Calm,-,N/A,,Clear,0,2012-11-18 20:56:00
12:16 PM,-14.8,-20.2,77,30.07,10.0,Calm,Calm,-,N/A,,Clear,0,2012-11-18 21:16:00
12:36 PM,-14.8,-18.4,84,30.08,10.0,Calm,Calm,-,N/A,,Clear,0,2012-11-18 21:36:00
12:56 PM,-13.0,-16.6,84,30.08,10.0,Calm,Calm,-,N/A,,Clear,0,2012-11-18 21:56:00
1:16 PM,-11.2,-16.6,77,30.09,10.0,Calm,Calm,-,N/A,,Clear,0,2012-11-18 22:16:00
1:36 PM,-11.2,-16.6,77,30.09,10.0,Calm,Calm,-,N/A,,Clear,0,2012-11-18 22:36:00
1:56 PM,-11.2,-16.6,77,30.09,10.0,Calm,Calm,-,N/A,,Clear,0,2012-11-18 22:56:00
2:16 PM,-11.2,-16.6,77,30.09,10.0,NW,3.5,-,N/A,,Clear,320,2012-11-18 23:16:00
2:36 PM,-11.2,-16.6,77,30.09,10.0,Calm,Calm,-,N/A,,Clear,0,2012-11-18 23:36:00
2:56 PM,-11.2,-16.6,77,30.10,10.0,Calm,Calm,-,N/A,,Clear,0,2012-11-18 23:56:00
3:16 PM,-11.2,-18.4,70,30.10,10.0,Calm,Calm,-,N/A,,Clear,0,2012-11-19 00:16:00
3:36 PM,-13.0,-18.4,77,30.10,10.0,Calm,Calm,-,N/A,,Clear,0,2012-11-19 00:36:00
3:56 PM,-13.0,-18.4,77,30.11,10.0,Calm,Calm,-,N/A,,Clear,0,2012-11-19 00:56:00
4:16 PM,-13.0,-20.2,70,30.11,10.0,NW,4.6,-,N/A,,Clear,310,2012-11-19 01:16:00
4:36 PM,-13.0,-16.6,84,30.11,10.0,NW,4.6,-,N/A,,Clear,310,2012-11-19 01:36:00
4:56 PM,-9.4,-13.0,84,30.12,10.0,Calm,Calm,-,N/A,,Clear,0,2012-11-19 01:56:00
5:16 PM,-11.2,-18.4,70,30.12,10.0,Calm,Calm,-,N/A,,Clear,0,2012-11-19 02:16:00
5:36 PM,-11.2,-14.8,84,30.13,10.0,Calm,Calm,-,N/A,,Clear,0,2012-11-19 02:36:00
5:56 PM,-13.0,-18.4,77,30.13,10.0,Calm,Calm,-,N/A,,Clear,0,2012-11-19 02:56:00
6:16 PM,-14.8,-23.8,64,30.14,10.0,Calm,Calm,-,N/A,,Clear,0,2012-11-19 03:16:00
6:36 PM,-14.8,-20.2,77,30.14,10.0,Calm,Calm,-,N/A,,Clear,0,2012-11-19 03:36:00
6:56 PM,-14.8,-20.2,77,30.14,10.0,Calm,Calm,-,N/A,,Clear,0,2012-11-19 03:56:00
7:16 PM,-13.0,-16.6,84,30.14,10.0,Calm,Calm,-,N/A,,Clear,0,2012-11-19 04:16:00
7:36 PM,-11.2,-16.6,77,30.15,10.0,SSW,4.6,-,N/A,,Clear,200,2012-11-19 04:36:00
7:56 PM,-16.6,-23.8,70,30.16,10.0,Calm,Calm,-,N/A,,Clear,0,2012-11-19 04:56:00
8:16 PM,-14.8,-25.6,58,30.16,10.0,Calm,Calm,-,N/A,,Clear,0,2012-11-19 05:16:00
8:36 PM,-14.8,-18.4,84,30.17,10.0,South,3.5,-,N/A,,Clear,190,2012-11-19 05:36:00
8:56 PM,-16.6,-22.0,76,30.17,10.0,Calm,Calm,-,N/A,,Clear,0,2012-11-19 05:56:00
9:16 PM,-14.8,-20.2,77,30.17,10.0,Calm,Calm,-,N/A,,Clear,0,2012-11-19 06:16:00
9:36 PM,-14.8,-20.2,77,30.18,10.0,Calm,Calm,-,N/A,,Clear,0,2012-11-19 06:36:00
9:56 PM,-16.6,-22.0,76,30.18,10.0,Calm,Calm,-,N/A,,Clear,0,2012-11-19 06:56:00
10:16 PM,-16.6,-23.8,70,30.19,10.0,Calm,Calm,-,N/A,,Clear,0,2012-11-19 07:16:00
10:36 PM,-16.6,-20.2,84,30.18,10.0,Calm,Calm,-,N/A,,Clear,0,2012-11-19 07:36:00
10:56 PM,-14.8,-20.2,77,30.19,10.0,NW,4.6,-,N/A,,Clear,320,2012-11-19 07:56:00
11:16 PM,-14.8,-20.2,77,30.19,10.0,SSW,3.5,-,N/A,,Clear,210,2012-11-19 08:16:00
11:36 PM,-14.8,-16.6,92,30.20,10.0,SSW,3.5,-,N/A,,Clear,200,2012-11-19 08:36:00
11:56 PM,-16.6,-23.8,70,30.21,10.0,SW,3.5,-,N/A,,Clear,230,2012-11-19 08:56:00